Time;durP1;ratioP1;P1;durP2;ratioP2;P2;SDS_P1;SDS_P2;PMS_P1;PMS_P2;Temp;Humidity;BMP_temperature;BMP_pressure;BME280_temperature;BME280_humidity;BME280_pressure;Samples;Min_cycle;Max_cycle;Signal;HPM_P1;HPM_P2
2023/09/21 00:02:17;;;;;;;;;;;;;;;15.93;100.00;99844.38;4966595;28;19993;-86
2023/09/21 00:05:06;;;;;;;;;;;;;;;15.93;100.00;99831.03;4981513;28;20306;-86
2023/09/21 00:07:52;;;;;;;;;;;;;;;15.94;100.00;99831.88;4964605;28;19933;-86
2023/09/21 00:10:39;;;;;;;;;;;;;;;15.95;100.00;99825.59;4960190;28;19977;-86
2023/09/21 00:13:43;;;;;;;;;;;;;;;15.95;100.00;99820.25;4947932;28;20048;-86
2023/09/21 00:16:32;;;;;;;;;;;;;;;15.95;100.00;99813.06;4963242;28;19946;-87
2023/09/21 00:19:17;;;;;;;;;;;;;;;15.95;100.00;99810.41;4955331;28;20578;-86
2023/09/21 00:22:04;;;;;;;;;;;;;;;15.97;100.00;99808.44;4956468;28;19934;-87
2023/09/21 00:24:50;;;;;;;;;;;;;;;16.00;100.00;99802.84;4966390;28;19968;-85
2023/09/21 00:27:36;;;;;;;;;;;;;;;16.01;100.00;99795.69;4971906;28;20662;-86
2023/09/21 00:30:21;;;;;;;;;;;;;;;16.01;100.00;99787.66;4956705;28;20396;-86
2023/09/21 00:33:08;;;;;;;;;;;;;;;15.99;100.00;99790.50;4972348;28;19988;-87
2023/09/21 00:35:58;;;;;;;;;;;;;;;15.97;100.00;99781.75;4971617;28;19952;-87
2023/09/21 00:38:43;;;;;;;;;;;;;;;15.97;100.00;99788.91;4970926;28;19929;-84
2023/09/21 00:41:32;;;;;;;;;;;;;;;15.97;100.00;99771.06;4969416;28;20070;-85
2023/09/21 00:44:22;;;;;;;;;;;;;;;15.99;100.00;99778.94;4983029;28;20133;-86
2023/09/21 00:47:07;;;;;;;;;;;;;;;15.99;100.00;99763.78;4980462;28;20000;-85
2023/09/21 00:49:54;;;;;;;;;;;;;;;16.02;100.00;99768.03;4953796;28;19953;-87
2023/09/21 00:52:45;;;;;;;;;;;;;;;16.02;100.00;99760.03;4973571;28;19937;-86
2023/09/21 00:55:31;;;;;;;;;;;;;;;16.05;100.00;99751.72;4970270;28;20400;-85
2023/09/21 00:58:17;;;;;;;;;;;;;;;16.08;100.00;99762.13;4968567;28;19948;-86
2023/09/21 01:01:05;;;;;;;;;;;;;;;16.08;100.00;99754.13;4967649;28;19930;-85
2023/09/21 01:03:52;;;;;;;;;;;;;;;16.07;100.00;99751.63;4965112;28;20426;-85
2023/09/21 01:06:39;;;;;;;;;;;;;;;16.06;100.00;99753.44;4967292;28;19922;-83
2023/09/21 01:09:28;;;;;;;;;;;;;;;16.05;100.00;99746.41;4953902;28;19953;-86
2023/09/21 01:12:27;;;;;;;;;;;;;;;16.04;100.00;99744.72;4975713;28;20526;-88
2023/09/21 01:15:16;;;;;;;;;;;;;;;16.04;100.00;99733.19;4990550;28;19944;-86
2023/09/21 01:18:07;;;;;;;;;;;;;;;16.02;100.00;99747.50;5332112;23;19932;-85
2023/09/21 01:33:52;;;;;;;;;;;;;;;16.00;100.00;99733.44;5057928;23;19936;-84
2023/09/21 01:49:30;;;;;;;;;;;;;;;15.99;100.00;99709.56;5941047;23;20013;-88
2023/09/21 01:54:52;;;;;;;;;;;;;;;15.95;100.00;99698.28;6007090;23;20129;-87
2023/09/21 02:06:29;;;;;;;;;;;;;;;15.92;100.00;99684.38;5747136;23;19930;-87
2023/09/21 02:09:20;;;;;;;;;;;;;;;15.90;100.00;99689.81;4992175;28;19929;-88
2023/09/21 02:12:12;;;;;;;;;;;;;;;15.91;100.00;99680.81;4998762;28;20474;-87
2023/09/21 02:15:00;;;;;;;;;;;;;;;15.92;100.00;99681.72;4997526;28;19929;-87
2023/09/21 02:18:08;;;;;;;;;;;;;;;15.90;100.00;99676.47;4996670;28;19941;-86
2023/09/21 02:54:11;;;;;;;;;;;;;;;15.93;100.00;99665.56;5859524;23;19929;-86
2023/09/21 02:56:56;;;;;;;;;;;;;;;15.93;100.00;99654.03;4954912;28;19988;-87
2023/09/21 02:59:45;;;;;;;;;;;;;;;15.93;100.00;99657.56;4952437;28;19969;-85
2023/09/21 03:02:30;;;;;;;;;;;;;;;15.94;100.00;99653.91;4943078;28;19930;-85
2023/09/21 03:05:17;;;;;;;;;;;;;;;15.95;100.00;99660.94;4952189;28;20747;-88
2023/09/21 03:08:08;;;;;;;;;;;;;;;15.96;100.00;99659.13;4937822;28;20924;-87
2023/09/21 03:10:54;;;;;;;;;;;;;;;15.96;100.00;99653.78;4937768;28;19957;-89
2023/09/21 03:13:40;;;;;;;;;;;;;;;15.98;100.00;99659.81;4954147;28;20390;-88
2023/09/21 03:16:25;;;;;;;;;;;;;;;15.98;100.00;99650.00;4926165;28;19922;-87
2023/09/21 03:19:13;;;;;;;;;;;;;;;15.99;100.00;99645.50;4936622;28;19941;-89
2023/09/21 03:21:58;;;;;;;;;;;;;;;15.99;100.00;99649.03;4926036;28;19933;-88
2023/09/21 03:24:47;;;;;;;;;;;;;;;15.99;100.00;99649.03;4954833;28;20106;-87
2023/09/21 03:27:34;;;;;;;;;;;;;;;16.00;100.00;99647.19;4957488;28;19952;-87
2023/09/21 03:30:20;;;;;;;;;;;;;;;15.99;100.00;99651.69;4956953;28;19941;-87
2023/09/21 03:33:06;;;;;;;;;;;;;;;15.97;100.00;99647.47;4942473;28;19997;-88
2023/09/21 03:35:52;;;;;;;;;;;;;;;15.98;100.00;99659.81;4939299;28;20945;-87
2023/09/21 03:38:37;;;;;;;;;;;;;;;15.98;100.00;99655.34;4955602;28;19930;-87
2023/09/21 03:41:23;;;;;;;;;;;;;;;15.99;100.00;99659.69;4957492;28;19969;-87
2023/09/21 03:44:09;;;;;;;;;;;;;;;16.00;100.00;99666.72;4939654;28;19934;-86
2023/09/21 03:46:57;;;;;;;;;;;;;;;16.00;100.00;99673.88;4946668;28;19932;-88
2023/09/21 03:49:44;;;;;;;;;;;;;;;16.00;100.00;99673.88;4956720;28;19930;-87
2023/09/21 03:52:30;;;;;;;;;;;;;;;15.99;100.00;99669.50;4943514;28;19973;-88
2023/09/21 03:55:16;;;;;;;;;;;;;;;15.99;100.00;99669.50;4942048;28;19934;-87
2023/09/21 03:58:02;;;;;;;;;;;;;;;16.00;100.00;99668.53;4956152;28;20476;-87
2023/09/21 04:00:48;;;;;;;;;;;;;;;15.98;100.00;99665.16;4938826;28;19941;-88
2023/09/21 04:03:35;;;;;;;;;;;;;;;15.97;100.00;99666.16;4953194;28;20357;-88
2023/09/21 04:06:20;;;;;;;;;;;;;;;15.95;100.00;99666.28;4955508;28;20374;-88
2023/09/21 04:09:06;;;;;;;;;;;;;;;15.94;100.00;99655.72;4925431;28;20052;-90
2023/09/21 04:11:52;;;;;;;;;;;;;;;15.95;100.00;99644.09;4940298;28;20013;-88
2023/09/21 04:14:37;;;;;;;;;;;;;;;15.94;100.00;99643.22;4957603;28;19930;-87
2023/09/21 04:17:26;;;;;;;;;;;;;;;15.94;100.00;99647.72;4925160;28;19930;-89
2023/09/21 04:20:12;;;;;;;;;;;;;;;15.94;100.00;99640.56;4940699;28;19922;-90
2023/09/21 04:23:00;;;;;;;;;;;;;;;15.93;100.00;99636.22;4952567;28;20052;-88
2023/09/21 04:25:47;;;;;;;;;;;;;;;15.91;100.00;99632.78;4925007;28;19934;-88
2023/09/21 04:28:32;;;;;;;;;;;;;;;15.89;100.00;99646.28;4926088;28;20091;-89
2023/09/21 04:31:18;;;;;;;;;;;;;;;15.88;100.00;99647.25;4938970;28;20547;-89
2023/09/21 04:34:04;;;;;;;;;;;;;;;15.86;100.00;99651.03;4941199;28;19938;-88
2023/09/21 04:36:50;;;;;;;;;;;;;;;15.84;100.00;99653.84;4942856;28;20294;-88
2023/09/21 04:39:35;;;;;;;;;;;;;;;15.83;100.00;99646.81;4927574;28;19953;-88
2023/09/21 04:42:23;;;;;;;;;;;;;;;15.82;100.00;99647.78;4931184;28;23676;-89
2023/09/21 04:45:09;;;;;;;;;;;;;;;15.81;100.00;99642.59;4940936;28;20572;-88
2023/09/21 04:48:01;;;;;;;;;;;;;;;15.80;100.00;99644.38;4943208;28;19929;-87
2023/09/21 04:50:47;;;;;;;;;;;;;;;15.79;100.00;99645.38;4942318;28;19936;-88
2023/09/21 04:53:33;;;;;;;;;;;;;;;15.78;100.00;99637.50;4943415;28;19934;-88
2023/09/21 04:56:18;;;;;;;;;;;;;;;15.77;100.00;99644.66;4955825;28;19930;-88
2023/09/21 04:59:04;;;;;;;;;;;;;;;15.77;100.00;99650.00;4939931;28;19941;-88
2023/09/21 05:01:49;;;;;;;;;;;;;;;15.76;100.00;99642.97;4955399;28;19933;-90
2023/09/21 05:04:35;;;;;;;;;;;;;;;15.75;100.00;99638.63;4934879;28;21845;-87
2023/09/21 05:07:24;;;;;;;;;;;;;;;15.74;100.00;99628.91;4931271;28;19977;-90
2023/09/21 05:10:11;;;;;;;;;;;;;;;15.75;100.00;99630.63;4920550;28;19934;-87
2023/09/21 05:12:57;;;;;;;;;;;;;;;15.74;100.00;99632.44;4938774;28;20317;-87
2023/09/21 05:15:45;;;;;;;;;;;;;;;15.74;100.00;99637.78;4935809;28;21191;-86
2023/09/21 05:18:31;;;;;;;;;;;;;;;15.73;100.00;99629.91;4937695;28;20286;-89
2023/09/21 05:21:16;;;;;;;;;;;;;;;15.74;100.00;99626.25;4934827;28;20041;-88
2023/09/21 05:24:03;;;;;;;;;;;;;;;15.75;100.00;99635.97;4920410;28;19940;-89
2023/09/21 05:26:49;;;;;;;;;;;;;;;15.73;100.00;99635.22;4935309;28;19965;-87
2023/09/21 05:29:36;;;;;;;;;;;;;;;15.74;100.00;99644.91;4934787;28;20460;-86
2023/09/21 05:32:22;;;;;;;;;;;;;;;15.73;100.00;99646.75;4952440;28;19965;-90
2023/09/21 05:35:07;;;;;;;;;;;;;;;15.73;100.00;99640.56;4920742;28;19934;-87
2023/09/21 05:37:56;;;;;;;;;;;;;;;15.73;100.00;99641.44;4950005;28;20025;-87
2023/09/21 05:40:42;;;;;;;;;;;;;;;15.72;100.00;99637.06;4923407;28;19930;-88
2023/09/21 05:43:29;;;;;;;;;;;;;;;15.72;100.00;99622.88;4936793;28;19985;-86
2023/09/21 05:46:14;;;;;;;;;;;;;;;15.70;100.00;99631.00;4936395;28;20381;-87
2023/09/21 05:49:00;;;;;;;;;;;;;;;15.68;100.00;99630.28;4922210;28;20024;-87
2023/09/21 05:51:47;;;;;;;;;;;;;;;15.64;100.00;99631.56;4930313;28;19938;-88
2023/09/21 05:54:32;;;;;;;;;;;;;;;15.57;100.00;99631.22;4954141;28;19937;-87
2023/09/21 05:57:18;;;;;;;;;;;;;;;15.52;100.00;99624.59;4944935;28;19934;-93
2023/09/21 06:00:04;;;;;;;;;;;;;;;15.46;100.00;99628.63;4963027;28;20403;-90
2023/09/21 06:02:50;;;;;;;;;;;;;;;15.40;100.00;99629.16;4970090;28;19934;-90
2023/09/21 06:05:35;;;;;;;;;;;;;;;15.36;100.00;99622.41;4958724;28;20388;-91
2023/09/21 06:08:24;;;;;;;;;;;;;;;15.32;100.00;99633.31;4977638;28;20016;-89
2023/09/21 06:11:09;;;;;;;;;;;;;;;15.30;100.00;99642.41;4950571;28;21524;-92
2023/09/21 06:13:55;;;;;;;;;;;;;;;15.27;100.00;99632.88;4952056;28;19934;-91
2023/09/21 06:16:44;;;;;;;;;;;;;;;15.25;100.00;99629.47;4960346;28;19929;-91
2023/09/21 06:19:30;;;;;;;;;;;;;;;15.24;100.00;99635.78;4965801;28;19930;-90
2023/09/21 06:22:16;;;;;;;;;;;;;;;15.22;100.00;99637.75;4961229;28;21824;-79
2023/09/21 06:25:02;;;;;;;;;;;;;;;15.21;100.00;99638.72;4956149;28;19930;-82
2023/09/21 06:27:48;;;;;;;;;;;;;;;15.19;100.00;99638.00;4954792;28;20400;-83
2023/09/21 06:30:33;;;;;;;;;;;;;;;15.19;100.00;99641.50;4958178;28;20352;-82
2023/09/21 06:33:23;;;;;;;;;;;;;;;15.18;100.00;99636.31;4972777;28;19948;-83
2023/09/21 06:36:19;;;;;;;;;;;;;;;15.18;100.00;99636.31;4972739;28;19930;-82
2023/09/21 06:39:09;;;;;;;;;;;;;;;15.17;100.00;99643.47;4969015;28;19972;-82
2023/09/21 06:41:55;;;;;;;;;;;;;;;15.17;100.00;99647.94;4957236;28;19933;-84
2023/09/21 06:44:41;;;;;;;;;;;;;;;15.16;100.00;99638.25;4971805;28;19953;-83
2023/09/21 06:47:28;;;;;;;;;;;;;;;15.18;100.00;99644.31;4961425;28;20357;-82
2023/09/21 06:50:14;;;;;;;;;;;;;;;15.19;100.00;99657.50;4973400;28;19941;-82
2023/09/21 06:52:59;;;;;;;;;;;;;;;15.20;100.00;99666.38;4973624;28;19926;-82
2023/09/21 06:55:48;;;;;;;;;;;;;;;15.20;100.00;99669.03;4966024;28;19934;-82
2023/09/21 06:58:35;;;;;;;;;;;;;;;15.21;100.00;99673.38;4977626;28;19934;-80
2023/09/21 07:01:21;;;;;;;;;;;;;;;15.20;100.00;99680.53;4973349;28;19976;-82
2023/09/21 07:04:07;;;;;;;;;;;;;;;15.20;100.00;99683.19;4975397;28;19936;-81
2023/09/21 07:06:53;;;;;;;;;;;;;;;15.19;100.00;99692.16;4976988;28;20068;-83
2023/09/21 07:09:38;;;;;;;;;;;;;;;15.19;100.00;99713.50;4977729;28;20804;-86
2023/09/21 07:12:24;;;;;;;;;;;;;;;15.13;100.00;99710.47;4974271;28;19992;-84
2023/09/21 07:15:10;;;;;;;;;;;;;;;14.97;100.00;99729.56;4976982;28;19979;-84
2023/09/21 07:17:56;;;;;;;;;;;;;;;14.64;100.00;99724.13;4973408;28;20544;-84
2023/09/21 07:20:41;;;;;;;;;;;;;;;14.39;100.00;99723.47;4987662;28;19955;-84
2023/09/21 07:23:27;;;;;;;;;;;;;;;14.22;100.00;99733.59;4974573;28;20423;-84
2023/09/21 07:26:13;;;;;;;;;;;;;;;14.13;100.00;99729.03;4974559;28;19979;-84
2023/09/21 07:29:02;;;;;;;;;;;;;;;14.04;100.00;99727.91;4975059;28;19933;-82
2023/09/21 07:31:48;;;;;;;;;;;;;;;13.98;100.00;99733.72;4975139;28;19926;-83
2023/09/21 07:34:34;;;;;;;;;;;;;;;13.94;100.00;99727.78;4975639;28;19937;-84
2023/09/21 07:37:20;;;;;;;;;;;;;;;13.92;100.00;99724.41;4974340;28;19930;-84
2023/09/21 07:40:07;;;;;;;;;;;;;;;13.91;100.00;99721.84;4967124;28;19934;-85
2023/09/21 07:42:53;;;;;;;;;;;;;;;13.87;100.00;99731.88;4956052;28;20495;-87
2023/09/21 07:45:38;;;;;;;;;;;;;;;13.81;100.00;99732.34;4956613;28;21509;-86
2023/09/21 07:48:26;;;;;;;;;;;;;;;13.81;100.00;99733.22;4966662;28;19926;-87
2023/09/21 07:51:13;;;;;;;;;;;;;;;13.77;100.00;99744.22;4958741;28;19926;-87
2023/09/21 07:54:00;;;;;;;;;;;;;;;13.72;100.00;99744.53;4973305;28;19937;-84
2023/09/21 07:56:46;;;;;;;;;;;;;;;13.69;100.00;99748.28;4971307;28;20309;-86
2023/09/21 07:59:32;;;;;;;;;;;;;;;13.66;100.00;99751.19;4964511;28;20060;-86
2023/09/21 08:02:18;;;;;;;;;;;;;;;13.65;100.00;99761.94;4973305;28;19930;-85
2023/09/21 08:05:09;;;;;;;;;;;;;;;13.63;100.00;99755.88;4962836;28;19930;-84
2023/09/21 08:07:55;;;;;;;;;;;;;;;13.64;100.00;99766.41;4969755;28;20496;-82
2023/09/21 08:10:40;;;;;;;;;;;;;;;13.64;100.00;99782.38;4969597;28;19934;-82
2023/09/21 08:13:27;;;;;;;;;;;;;;;13.62;100.00;99776.31;4970262;28;19926;-83
2023/09/21 08:16:13;;;;;;;;;;;;;;;13.62;100.00;99762.19;4967911;28;20033;-85
2023/09/21 08:19:01;;;;;;;;;;;;;;;13.60;100.00;99756.97;4955488;28;19930;-84
2023/09/21 08:21:47;;;;;;;;;;;;;;;13.63;100.00;99767.38;4968881;28;19933;-85
2023/09/21 08:24:36;;;;;;;;;;;;;;;13.67;100.00;99770.66;4967311;28;20658;-83
2023/09/21 08:27:22;;;;;;;;;;;;;;;13.69;100.00;99766.88;4968199;28;19941;-84
2023/09/21 08:30:12;;;;;;;;;;;;;;;13.74;100.00;99781.66;4968777;28;19921;-85
2023/09/21 08:32:58;;;;;;;;;;;;;;;13.78;100.00;99785.81;4968354;28;20294;-83
2023/09/21 08:35:44;;;;;;;;;;;;;;;13.81;100.00;99796.19;4968574;28;19930;-85
2023/09/21 08:38:38;;;;;;;;;;;;;;;13.82;100.00;99793.44;4969444;28;19930;-86
2023/09/21 08:41:25;;;;;;;;;;;;;;;13.87;100.00;99792.22;4970741;28;19933;-87
2023/09/21 08:44:11;;;;;;;;;;;;;;;13.90;100.00;99784.84;4951682;28;19930;-90
2023/09/21 08:46:57;;;;;;;;;;;;;;;13.94;100.00;99785.47;4971518;28;19934;-90
2023/09/21 08:49:46;;;;;;;;;;;;;;;13.97;100.00;99786.09;4970283;28;20274;-84
2023/09/21 08:52:32;;;;;;;;;;;;;;;13.95;100.00;99782.69;4969525;28;19929;-86
2023/09/21 08:55:17;;;;;;;;;;;;;;;13.98;100.00;99790.44;4967661;28;19963;-90
2023/09/21 08:58:04;;;;;;;;;;;;;;;14.04;100.00;99791.78;4973063;28;19929;-87
2023/09/21 09:00:56;;;;;;;;;;;;;;;14.02;100.00;99791.06;4969168;28;20330;-85
2023/09/21 09:03:42;;;;;;;;;;;;;;;14.02;100.00;99799.03;4970744;28;19936;-85
2023/09/21 09:06:30;;;;;;;;;;;;;;;13.98;100.00;99798.44;4972333;28;19984;-85
2023/09/21 09:09:16;;;;;;;;;;;;;;;13.95;100.00;99803.97;4972579;28;19961;-85
2023/09/21 09:12:01;;;;;;;;;;;;;;;13.94;100.00;99801.44;4970755;28;19941;-83
2023/09/21 09:14:57;;;;;;;;;;;;;;;13.90;100.00;99795.47;4969970;28;19934;-83
2023/09/21 09:17:45;;;;;;;;;;;;;;;13.89;100.00;99792.97;4954962;28;19974;-85
2023/09/21 09:20:32;;;;;;;;;;;;;;;13.87;100.00;99795.72;4966325;28;20297;-84
2023/09/21 09:23:18;;;;;;;;;;;;;;;13.88;100.00;99794.75;4950687;28;19937;-84
2023/09/21 09:26:08;;;;;;;;;;;;;;;13.90;100.00;99792.81;4952941;28;20040;-84
2023/09/21 09:29:06;;;;;;;;;;;;;;;13.87;100.00;99802.84;4952905;28;20057;-81
2023/09/21 09:31:52;;;;;;;;;;;;;;;13.91;100.00;99801.66;4967846;28;20297;-83
2023/09/21 09:34:38;;;;;;;;;;;;;;;13.93;100.00;99803.25;4966315;28;19933;-83
2023/09/21 09:37:25;;;;;;;;;;;;;;;13.94;100.00;99812.91;4967402;28;19926;-83
2023/09/21 09:40:18;;;;;;;;;;;;;;;13.94;100.00;99812.09;4967251;28;19940;-83
2023/09/21 09:43:06;;;;;;;;;;;;;;;13.94;100.00;99807.59;4962603;28;19934;-83
2023/09/21 09:45:52;;;;;;;;;;;;;;;13.92;100.00;99809.53;4964347;28;20373;-83
2023/09/21 09:48:39;;;;;;;;;;;;;;;13.92;100.00;99806.88;4967036;28;20020;-84
2023/09/21 09:51:26;;;;;;;;;;;;;;;13.96;100.00;99805.66;4965668;28;19952;-82
2023/09/21 09:54:12;;;;;;;;;;;;;;;13.99;100.00;99816.09;4965581;28;20384;-84
2023/09/21 09:56:59;;;;;;;;;;;;;;;13.99;100.00;99813.44;4967119;28;20432;-85
2023/09/21 09:59:45;;;;;;;;;;;;;;;14.03;100.00;99811.38;4974044;28;20373;-83
2023/09/21 10:02:31;;;;;;;;;;;;;;;14.04;100.00;99812.22;4967879;28;20527;-80
2023/09/21 10:05:19;;;;;;;;;;;;;;;14.05;100.00;99803.28;4959398;28;19929;-82
2023/09/21 10:08:08;;;;;;;;;;;;;;;14.07;100.00;99809.31;4972854;28;19934;-81
2023/09/21 10:10:55;;;;;;;;;;;;;;;14.09;100.00;99820.69;4966793;28;19929;-83
2023/09/21 10:13:51;;;;;;;;;;;;;;;14.09;100.00;99826.03;4952569;28;20056;-82
2023/09/21 10:16:46;;;;;;;;;;;;;;;14.11;100.00;99808.97;4968539;28;19930;-82
2023/09/21 10:19:38;;;;;;;;;;;;;;;14.15;100.00;99809.59;4984527;28;20003;-81
2023/09/21 10:22:25;;;;;;;;;;;;;;;14.17;100.00;99817.44;4972604;28;19976;-81
2023/09/21 10:25:11;;;;;;;;;;;;;;;14.20;100.00;99828.72;4973036;28;19937;-81
2023/09/21 10:27:58;;;;;;;;;;;;;;;14.19;100.00;99829.69;4959912;28;20042;-81
2023/09/21 10:30:44;;;;;;;;;;;;;;;14.22;100.00;99824.09;4971452;28;19936;-82
2023/09/21 10:33:51;;;;;;;;;;;;;;;14.22;100.00;99815.28;4971886;28;19933;-83
2023/09/21 10:36:38;;;;;;;;;;;;;;;14.26;100.00;99819.41;4973887;28;20488;-83
2023/09/21 10:39:24;;;;;;;;;;;;;;;14.31;100.00;99803.06;4971981;28;20357;-82
2023/09/21 10:42:12;;;;;;;;;;;;;;;14.29;100.00;99805.00;4953724;28;20029;-84
2023/09/21 10:45:07;;;;;;;;;;;;;;;14.30;100.00;99812.88;4960714;28;20215;-82
2023/09/21 10:47:53;;;;;;;;;;;;;;;14.30;100.00;99818.19;4956252;28;20476;-82
2023/09/21 10:50:42;;;;;;;;;;;;;;;14.31;100.00;99835.88;4963260;28;19937;-82
2023/09/21 10:53:28;;;;;;;;;;;;;;;14.32;100.00;99850.03;4964504;28;20023;-83
2023/09/21 10:56:14;;;;;;;;;;;;;;;14.28;100.00;99868.06;4959951;28;20497;-83
2023/09/21 10:59:00;;;;;;;;;;;;;;;14.28;100.00;99845.91;4947839;28;20013;-82
2023/09/21 11:01:46;;;;;;;;;;;;;;;14.25;100.00;99842.53;4929549;28;20663;-83
2023/09/21 11:04:31;;;;;;;;;;;;;;;14.25;100.00;99831.88;4918011;28;19930;-83
2023/09/21 11:07:17;;;;;;;;;;;;;;;14.26;100.00;99825.56;4934757;28;20576;-82
2023/09/21 11:10:06;;;;;;;;;;;;;;;14.32;100.00;99816.25;4931045;28;20465;-82
2023/09/21 11:12:52;;;;;;;;;;;;;;;14.38;100.00;99807.78;4930165;28;20411;-83
2023/09/21 11:15:38;;;;;;;;;;;;;;;14.44;100.00;99806.47;4931474;28;20825;-80
2023/09/21 11:18:24;;;;;;;;;;;;;;;14.48;100.00;99812.38;4932036;28;19934;-81
2023/09/21 11:21:11;;;;;;;;;;;;;;;14.46;100.00;99815.19;4931618;28;19972;-81
2023/09/21 11:23:56;;;;;;;;;;;;;;;14.45;100.00;99821.50;4947893;28;19941;-82
2023/09/21 11:26:46;;;;;;;;;;;;;;;14.45;100.00;99834.81;4932621;28;19930;-80
2023/09/21 11:29:31;;;;;;;;;;;;;;;14.44;100.00;99867.69;4944368;28;19929;-81
2023/09/21 11:32:17;;;;;;;;;;;;;;;14.38;100.00;99865.50;4945376;28;19930;-82
2023/09/21 11:35:04;;;;;;;;;;;;;;;14.34;100.00;99877.38;4947257;28;19929;-83
2023/09/21 11:37:50;;;;;;;;;;;;;;;14.37;100.00;99874.47;4948947;28;20070;-84
2023/09/21 11:40:36;;;;;;;;;;;;;;;14.37;100.00;99878.00;4944509;28;19930;-83
2023/09/21 11:43:23;;;;;;;;;;;;;;;14.38;100.00;99878.81;4949048;28;19949;-83
2023/09/21 11:46:10;;;;;;;;;;;;;;;14.39;100.00;99875.22;4930370;28;19930;-83
2023/09/21 11:48:56;;;;;;;;;;;;;;;14.46;100.00;99879.09;4947684;28;19930;-82
2023/09/21 11:51:45;;;;;;;;;;;;;;;14.49;100.00;99870.03;4947367;28;19938;-82
2023/09/21 11:54:34;;;;;;;;;;;;;;;14.52;100.00;99872.44;4934795;28;20025;-83
2023/09/21 11:57:19;;;;;;;;;;;;;;;14.52;100.00;99875.09;4947370;28;19930;-82
2023/09/21 12:00:26;;;;;;;;;;;;;;;14.54;100.00;99867.84;4946065;28;20668;-83
2023/09/21 12:03:13;;;;;;;;;;;;;;;14.56;100.00;99867.72;4934979;28;20329;-84
2023/09/21 12:05:58;;;;;;;;;;;;;;;14.56;100.00;99870.41;4933807;28;19925;-84
2023/09/21 12:08:44;;;;;;;;;;;;;;;14.58;100.00;99863.97;4932868;28;19930;-85
2023/09/21 12:11:30;;;;;;;;;;;;;;;14.56;100.00;99843.75;4945262;28;19938;-85
2023/09/21 12:14:16;;;;;;;;;;;;;;;14.52;100.00;99829.84;4920816;28;20668;-83
2023/09/21 12:17:09;;;;;;;;;;;;;;;14.51;100.00;99813.00;4941769;28;20386;-83
2023/09/21 12:19:54;;;;;;;;;;;;;;;14.47;100.00;99784.94;4946135;28;19941;-85
2023/09/21 12:22:40;;;;;;;;;;;;;;;14.41;100.00;99772.09;4932645;28;19934;-85
2023/09/21 12:25:26;;;;;;;;;;;;;;;14.43;100.00;99778.16;4946038;28;19933;-84
2023/09/21 12:28:12;;;;;;;;;;;;;;;14.43;100.00;99775.47;4946594;28;19930;-84
2023/09/21 12:30:57;;;;;;;;;;;;;;;14.44;100.00;99779.84;4939085;28;20456;-82
2023/09/21 12:33:43;;;;;;;;;;;;;;;14.46;100.00;99785.03;4943263;28;19934;-82
2023/09/21 12:36:29;;;;;;;;;;;;;;;14.45;100.00;99792.19;4942800;28;19930;-83
2023/09/21 12:39:15;;;;;;;;;;;;;;;14.46;100.00;99801.88;4928502;28;20309;-83
2023/09/21 12:42:04;;;;;;;;;;;;;;;14.49;100.00;99787.47;4943847;28;20020;-83
2023/09/21 12:44:50;;;;;;;;;;;;;;;14.51;100.00;99774.88;4943895;28;20179;-83
2023/09/21 12:47:37;;;;;;;;;;;;;;;14.52;100.00;99774.78;4928529;28;19942;-83
2023/09/21 12:50:25;;;;;;;;;;;;;;;14.53;100.00;99759.63;4931057;28;19934;-83
2023/09/21 12:53:11;;;;;;;;;;;;;;;14.52;100.00;99761.47;4913649;28;20385;-83
2023/09/21 12:55:57;;;;;;;;;;;;;;;14.53;100.00;99757.81;4943853;28;19930;-83
2023/09/21 12:58:42;;;;;;;;;;;;;;;14.56;100.00;99756.72;4940479;28;20806;-82
2023/09/21 13:01:28;;;;;;;;;;;;;;;14.52;100.00;99764.13;4941092;28;19977;-82
2023/09/21 13:04:14;;;;;;;;;;;;;;;14.52;100.00;99757.94;4940222;28;19937;-82
2023/09/21 13:06:59;;;;;;;;;;;;;;;14.49;100.00;99759.03;4940661;28;21860;-81
2023/09/21 13:09:48;;;;;;;;;;;;;;;14.48;100.00;99764.47;4941981;28;19930;-81
2023/09/21 13:12:37;;;;;;;;;;;;;;;14.48;100.00;99762.66;4931772;28;19926;-82
2023/09/21 13:15:26;;;;;;;;;;;;;;;14.46;100.00;99763.75;4941786;28;20440;-83
2023/09/21 13:18:13;;;;;;;;;;;;;;;14.45;100.00;99754.06;4939921;28;20008;-82
2023/09/21 13:21:06;;;;;;;;;;;;;;;14.47;100.00;99760.97;4911995;28;19930;-82
2023/09/21 13:23:53;;;;;;;;;;;;;;;14.43;100.00;99764.81;4939341;28;19930;-82
2023/09/21 13:26:41;;;;;;;;;;;;;;;14.42;100.00;99757.81;4943066;28;19936;-82
2023/09/21 13:29:31;;;;;;;;;;;;;;;14.40;100.00;99760.59;4944327;28;19988;-81
2023/09/21 13:32:19;;;;;;;;;;;;;;;14.36;100.00;99767.16;4923954;28;20305;-83
2023/09/21 13:35:05;;;;;;;;;;;;;;;14.32;100.00;99770.16;4944030;28;19965;-81
2023/09/21 13:37:50;;;;;;;;;;;;;;;14.29;100.00;99759.75;4928907;28;19933;-81
2023/09/21 13:40:36;;;;;;;;;;;;;;;14.29;100.00;99757.09;4927037;28;19977;-81
2023/09/21 13:43:25;;;;;;;;;;;;;;;14.26;100.00;99748.38;4942039;28;20444;-81
2023/09/21 13:46:13;;;;;;;;;;;;;;;14.29;100.00;99752.63;4941198;28;19941;-81
2023/09/21 13:49:00;;;;;;;;;;;;;;;14.34;100.00;99745.09;4930287;28;19957;-81
2023/09/21 13:51:46;;;;;;;;;;;;;;;14.33;100.00;99750.56;4947335;28;19980;-82
2023/09/21 13:54:32;;;;;;;;;;;;;;;14.38;100.00;99737.72;4931694;28;19930;-82
2023/09/21 13:57:18;;;;;;;;;;;;;;;14.42;100.00;99723.19;4957841;28;19934;-81
2023/09/21 14:00:03;;;;;;;;;;;;;;;14.50;100.00;99710.13;4964410;28;19932;-82
2023/09/21 14:02:49;;;;;;;;;;;;;;;14.59;100.00;99713.03;4951433;28;20040;-81
2023/09/21 14:05:35;;;;;;;;;;;;;;;14.61;100.00;99714.56;4964238;28;21124;-82
2023/09/21 14:08:22;;;;;;;;;;;;;;;14.59;100.00;99710.38;4964436;28;19937;-81
2023/09/21 14:11:07;;;;;;;;;;;;;;;14.58;100.00;99709.50;4949138;28;19937;-81
2023/09/21 14:13:53;;;;;;;;;;;;;;;14.56;100.00;99700.81;4935348;28;19937;-82
2023/09/21 14:16:39;;;;;;;;;;;;;;;14.57;100.00;99701.63;4962548;28;19930;-81
2023/09/21 14:19:25;;;;;;;;;;;;;;;14.56;100.00;99711.47;4964335;28;19933;-82
2023/09/21 14:22:11;;;;;;;;;;;;;;;14.56;100.00;99718.59;4963750;28;20040;-82
2023/09/21 14:24:57;;;;;;;;;;;;;;;14.53;100.00;99720.53;4960622;28;19976;-82
2023/09/21 14:27:42;;;;;;;;;;;;;;;14.57;100.00;99712.28;4948662;28;21031;-82
2023/09/21 14:30:28;;;;;;;;;;;;;;;14.57;100.00;99710.47;4946159;28;19934;-81
2023/09/21 14:33:14;;;;;;;;;;;;;;;14.61;100.00;99713.75;4947291;28;20402;-82
2023/09/21 14:36:00;;;;;;;;;;;;;;;14.63;100.00;99714.47;4946490;28;19929;-82
2023/09/21 14:38:46;;;;;;;;;;;;;;;14.60;100.00;99712.06;4948265;28;20056;-82
2023/09/21 14:41:32;;;;;;;;;;;;;;;14.61;100.00;99714.56;4949804;28;20056;-82
2023/09/21 14:44:21;;;;;;;;;;;;;;;14.62;100.00;99710.09;4949171;28;19941;-81
2023/09/21 14:47:06;;;;;;;;;;;;;;;14.64;100.00;99708.16;4963944;28;19941;-83
2023/09/21 14:49:55;;;;;;;;;;;;;;;14.66;100.00;99706.22;4933630;28;19929;-81
2023/09/21 14:52:41;;;;;;;;;;;;;;;14.62;100.00;99705.63;4969918;28;20313;-82
2023/09/21 14:55:26;;;;;;;;;;;;;;;14.62;100.00;99708.31;4950511;28;19930;-82
2023/09/21 14:58:14;;;;;;;;;;;;;;;14.63;100.00;99704.66;4956434;28;19935;-80
2023/09/21 15:01:08;;;;;;;;;;;;;;;14.64;100.00;99698.38;4947630;28;20481;-81
2023/09/21 15:03:59;;;;;;;;;;;;;;;14.66;100.00;99707.06;4936593;28;20361;-81
2023/09/21 15:06:46;;;;;;;;;;;;;;;14.66;100.00;99701.75;4954388;28;19930;-80
2023/09/21 15:09:35;;;;;;;;;;;;;;;14.64;100.00;99697.50;4939691;28;19985;-82
2023/09/21 15:12:20;;;;;;;;;;;;;;;14.65;100.00;99683.22;4954519;28;19945;-82
2023/09/21 15:15:13;;;;;;;;;;;;;;;14.64;100.00;99678.84;4946304;28;20328;-81
2023/09/21 15:17:58;;;;;;;;;;;;;;;14.61;100.00;99668.47;4935665;28;19933;-82
2023/09/21 15:20:45;;;;;;;;;;;;;;;14.61;100.00;99671.13;4948452;28;20711;-81
2023/09/21 15:23:33;;;;;;;;;;;;;;;14.61;100.00;99671.97;4938377;28;19934;-82
2023/09/21 15:26:19;;;;;;;;;;;;;;;14.60;100.00;99682.75;4945591;28;19938;-82
2023/09/21 15:29:05;;;;;;;;;;;;;;;14.62;100.00;99678.16;4936463;28;19937;-82